sensor_id;sensor_type;location;lat;lon;timestamp;pressure;altitude;pressure_sealevel;temperature;humidity
77871;BME280;67067;46.850;7.578;2023-08-06T00:00:07;94935.97;;;15.16;40.75
77871;BME280;67067;46.850;7.578;2023-08-06T00:01:09;94945.06;;;15.15;40.67
77871;BME280;67067;46.850;7.578;2023-08-06T00:02:11;94928.25;;;15.14;40.43
77871;BME280;67067;46.850;7.578;2023-08-06T00:03:13;94938.13;;;15.14;40.50
77871;BME280;67067;46.850;7.578;2023-08-06T00:04:17;94944.28;;;15.09;40.75
77871;BME280;67067;46.850;7.578;2023-08-06T00:05:19;94939.72;;;15.15;40.51
77871;BME280;67067;46.850;7.578;2023-08-06T00:06:24;94939.47;;;15.11;40.45
77871;BME280;67067;46.850;7.578;2023-08-06T00:07:26;94939.41;;;15.16;40.28
77871;BME280;67067;46.850;7.578;2023-08-06T00:08:28;94937.84;;;15.15;40.25
77871;BME280;67067;46.850;7.578;2023-08-06T00:09:29;94933.59;;;15.14;40.37
77871;BME280;67067;46.850;7.578;2023-08-06T00:10:33;94938.91;;;15.14;40.37
77871;BME280;67067;46.850;7.578;2023-08-06T00:11:35;94936.25;;;15.14;40.34
77871;BME280;67067;46.850;7.578;2023-08-06T00:12:36;94930.38;;;15.12;40.35
77871;BME280;67067;46.850;7.578;2023-08-06T00:13:40;94926.94;;;15.12;40.39
77871;BME280;67067;46.850;7.578;2023-08-06T00:14:44;94928.53;;;15.13;40.28
77871;BME280;67067;46.850;7.578;2023-08-06T00:15:46;94935.47;;;15.14;40.50
77871;BME280;67067;46.850;7.578;2023-08-06T00:16:48;94919.19;;;15.15;40.49
77871;BME280;67067;46.850;7.578;2023-08-06T00:17:54;94925.59;;;15.14;40.23
77871;BME280;67067;46.850;7.578;2023-08-06T00:18:56;94930.66;;;15.16;39.89
77871;BME280;67067;46.850;7.578;2023-08-06T00:20:00;94922.66;;;15.16;39.92
77871;BME280;67067;46.850;7.578;2023-08-06T00:21:06;94929.84;;;15.15;39.79
77871;BME280;67067;46.850;7.578;2023-08-06T00:22:07;94920.75;;;15.16;39.98
77871;BME280;67067;46.850;7.578;2023-08-06T00:23:09;94923.94;;;15.18;40.26
77871;BME280;67067;46.850;7.578;2023-08-06T00:24:13;94915.84;;;15.24;39.75
77871;BME280;67067;46.850;7.578;2023-08-06T00:25:15;94920.41;;;15.23;39.67
77871;BME280;67067;46.850;7.578;2023-08-06T00:26:16;94921.50;;;15.22;40.32
77871;BME280;67067;46.850;7.578;2023-08-06T00:27:18;94919.59;;;15.23;40.23
77871;BME280;67067;46.850;7.578;2023-08-06T00:28:22;94913.69;;;15.26;39.85
77871;BME280;67067;46.850;7.578;2023-08-06T00:29:24;94915.78;;;15.29;39.92
77871;BME280;67067;46.850;7.578;2023-08-06T00:30:27;94916.28;;;15.31;39.80
77871;BME280;67067;46.850;7.578;2023-08-06T00:31:29;94921.63;;;15.31;39.77
77871;BME280;67067;46.850;7.578;2023-08-06T00:32:31;94916.00;;;15.32;39.51
77871;BME280;67067;46.850;7.578;2023-08-06T00:33:32;94904.03;;;15.30;39.58
77871;BME280;67067;46.850;7.578;2023-08-06T00:34:34;94904.84;;;15.30;39.52
77871;BME280;67067;46.850;7.578;2023-08-06T00:35:36;94912.34;;;15.28;39.38
77871;BME280;67067;46.850;7.578;2023-08-06T00:36:38;94902.69;;;15.32;39.46
77871;BME280;67067;46.850;7.578;2023-08-06T00:37:41;94900.88;;;15.28;39.30
77871;BME280;67067;46.850;7.578;2023-08-06T00:38:43;94894.53;;;15.24;39.31
77871;BME280;67067;46.850;7.578;2023-08-06T00:39:45;94899.28;;;15.27;39.39
77871;BME280;67067;46.850;7.578;2023-08-06T00:40:50;94894.69;;;15.32;39.36
77871;BME280;67067;46.850;7.578;2023-08-06T00:41:51;94896.34;;;15.28;39.12
77871;BME280;67067;46.850;7.578;2023-08-06T00:42:53;94899.28;;;15.27;39.32
77871;BME280;67067;46.850;7.578;2023-08-06T00:43:57;94881.28;;;15.18;39.47
77871;BME280;67067;46.850;7.578;2023-08-06T00:44:59;94890.88;;;15.20;39.55
77871;BME280;67067;46.850;7.578;2023-08-06T00:46:00;94890.59;;;15.21;39.27
77871;BME280;67067;46.850;7.578;2023-08-06T00:47:06;94893.84;;;15.18;39.38
77871;BME280;67067;46.850;7.578;2023-08-06T00:48:08;94884.84;;;15.14;39.32
77871;BME280;67067;46.850;7.578;2023-08-06T00:49:13;94890.41;;;15.12;39.39
77871;BME280;67067;46.850;7.578;2023-08-06T00:50:14;94893.25;;;15.21;39.32
77871;BME280;67067;46.850;7.578;2023-08-06T00:51:17;94883.44;;;15.16;39.27
77871;BME280;67067;46.850;7.578;2023-08-06T00:52:20;94878.63;;;15.18;39.34
77871;BME280;67067;46.850;7.578;2023-08-06T00:53:22;94875.19;;;15.18;39.45
77871;BME280;67067;46.850;7.578;2023-08-06T00:54:23;94880.19;;;15.20;39.41
77871;BME280;67067;46.850;7.578;2023-08-06T00:55:29;94884.84;;;15.14;39.49
77871;BME280;67067;46.850;7.578;2023-08-06T00:56:32;94884.53;;;15.15;39.80
77871;BME280;67067;46.850;7.578;2023-08-06T00:57:37;94883.44;;;15.16;39.34
77871;BME280;67067;46.850;7.578;2023-08-06T00:58:39;94876.94;;;15.03;39.58
77871;BME280;67067;46.850;7.578;2023-08-06T00:59:40;94873.38;;;15.13;39.66
77871;BME280;67067;46.850;7.578;2023-08-06T01:00:42;94884.84;;;15.14;39.66
77871;BME280;67067;46.850;7.578;2023-08-06T01:01:44;94884.84;;;15.14;39.69
77871;BME280;67067;46.850;7.578;2023-08-06T01:02:47;94890.66;;;15.16;39.77
77871;BME280;67067;46.850;7.578;2023-08-06T01:03:50;94886.84;;;15.22;39.49
77871;BME280;67067;46.850;7.578;2023-08-06T01:04:52;94896.13;;;15.25;39.64
77871;BME280;67067;46.850;7.578;2023-08-06T01:05:53;94891.28;;;15.27;39.29
77871;BME280;67067;46.850;7.578;2023-08-06T01:14:15;94887.03;;;15.26;39.24
77871;BME280;67067;46.850;7.578;2023-08-06T01:16:05;94883.72;;;15.34;39.33
77871;BME280;67067;46.850;7.578;2023-08-06T01:17:10;94889.03;;;15.34;39.46
77871;BME280;67067;46.850;7.578;2023-08-06T01:18:13;94883.16;;;15.37;39.46
77871;BME280;67067;46.850;7.578;2023-08-06T01:19:17;94881.00;;;15.39;39.48
77871;BME280;67067;46.850;7.578;2023-08-06T01:20:19;94882.56;;;15.40;39.35
77871;BME280;67067;46.850;7.578;2023-08-06T01:21:21;94884.16;;;15.41;39.82
77871;BME280;67067;46.850;7.578;2023-08-06T01:22:24;94885.75;;;15.42;39.79
77871;BME280;67067;46.850;7.578;2023-08-06T01:23:26;94873.69;;;15.45;39.67
77871;BME280;67067;46.850;7.578;2023-08-06T01:24:28;94873.69;;;15.45;39.64
77871;BME280;67067;46.850;7.578;2023-08-06T01:25:30;94879.81;;;15.45;39.46
77871;BME280;67067;46.850;7.578;2023-08-06T01:26:37;94867.00;;;15.48;39.39
77871;BME280;67067;46.850;7.578;2023-08-06T01:27:44;94866.50;;;15.45;39.57
77871;BME280;67067;46.850;7.578;2023-08-06T01:30:26;94865.41;;;15.46;39.43
77871;BME280;67067;46.850;7.578;2023-08-06T01:31:21;94862.75;;;15.46;39.39
77871;BME280;67067;46.850;7.578;2023-08-06T01:32:23;94858.69;;;15.49;39.27
77871;BME280;67067;46.850;7.578;2023-08-06T01:33:26;94855.25;;;15.49;39.35
77871;BME280;67067;46.850;7.578;2023-08-06T01:34:30;94867.19;;;15.51;39.63
77871;BME280;67067;46.850;7.578;2023-08-06T01:35:32;94862.34;;;15.53;38.47
77871;BME280;67067;46.850;7.578;2023-08-06T01:36:35;94859.09;;;15.56;38.69
77871;BME280;67067;46.850;7.578;2023-08-06T01:37:37;94865.25;;;15.57;38.39
77871;BME280;67067;46.850;7.578;2023-08-06T01:38:39;94861.84;;;15.51;38.80
77871;BME280;67067;46.850;7.578;2023-08-06T01:39:42;94867.00;;;15.48;39.13
77871;BME280;67067;46.850;7.578;2023-08-06T01:40:46;94863.75;;;15.51;38.83
77871;BME280;67067;46.850;7.578;2023-08-06T01:41:48;94862.16;;;15.50;38.81
77871;BME280;67067;46.850;7.578;2023-08-06T01:42:50;94858.50;;;15.45;38.50
77871;BME280;67067;46.850;7.578;2023-08-06T01:43:53;94863.75;;;15.51;38.28
77871;BME280;67067;46.850;7.578;2023-08-06T01:44:57;94863.16;;;15.54;38.19
77871;BME280;67067;46.850;7.578;2023-08-06T01:46:01;94862.06;;;15.55;38.26
77871;BME280;67067;46.850;7.578;2023-08-06T01:47:02;94863.66;;;15.56;38.44
77871;BME280;67067;46.850;7.578;2023-08-06T01:48:04;94866.00;;;15.57;38.50
77871;BME280;67067;46.850;7.578;2023-08-06T01:49:06;94862.84;;;15.55;38.21
77871;BME280;67067;46.850;7.578;2023-08-06T01:50:07;94862.66;;;15.52;38.31
77871;BME280;67067;46.850;7.578;2023-08-06T01:51:12;94858.91;;;15.53;38.31
77871;BME280;67067;46.850;7.578;2023-08-06T01:52:13;94861.25;;;15.54;38.24
77871;BME280;67067;46.850;7.578;2023-08-06T01:53:15;94860.78;;;15.52;38.53
77871;BME280;67067;46.850;7.578;2023-08-06T01:54:16;94859.69;;;15.53;38.46
77871;BME280;67067;46.850;7.578;2023-08-06T01:55:20;94850.50;;;15.59;38.52
77871;BME280;67067;46.850;7.578;2023-08-06T01:56:22;94860.50;;;15.54;38.53
77871;BME280;67067;46.850;7.578;2023-08-06T01:57:23;94855.16;;;15.54;38.47
77871;BME280;67067;46.850;7.578;2023-08-06T01:58:25;94853.16;;;15.45;38.46
77871;BME280;67067;46.850;7.578;2023-08-06T01:59:27;94855.75;;;15.51;38.70
77871;BME280;67067;46.850;7.578;2023-08-06T02:00:29;94860.50;;;15.54;38.52
77871;BME280;67067;46.850;7.578;2023-08-06T02:01:32;94859.91;;;15.57;38.42
77871;BME280;67067;46.850;7.578;2023-08-06T02:02:39;94857.91;;;15.49;38.72
77871;BME280;67067;46.850;7.578;2023-08-06T02:03:43;94865.50;;;15.55;38.60
77871;BME280;67067;46.850;7.578;2023-08-06T02:04:45;94861.25;;;15.54;38.63
77871;BME280;67067;46.850;7.578;2023-08-06T02:05:47;94851.41;;;15.55;38.68
77871;BME280;67067;46.850;7.578;2023-08-06T02:06:51;94852.06;;;15.46;38.94
77871;BME280;67067;46.850;7.578;2023-08-06T02:07:53;94849.69;;;15.45;38.86
77871;BME280;67067;46.850;7.578;2023-08-06T02:08:56;94851.56;;;15.44;38.92
77871;BME280;67067;46.850;7.578;2023-08-06T02:09:58;94852.84;;;15.47;38.44
77871;BME280;67067;46.850;7.578;2023-08-06T02:11:00;94847.25;;;15.49;38.66
77871;BME280;67067;46.850;7.578;2023-08-06T02:12:05;94849.59;;;15.50;38.79
77871;BME280;67067;46.850;7.578;2023-08-06T02:13:07;94841.91;;;15.49;38.62
77871;BME280;67067;46.850;7.578;2023-08-06T02:14:09;94839.75;;;15.51;38.57
77871;BME280;67067;46.850;7.578;2023-08-06T02:15:10;94844.44;;;15.40;38.87
77871;BME280;67067;46.850;7.578;2023-08-06T02:16:12;94839.75;;;15.51;38.47
77871;BME280;67067;46.850;7.578;2023-08-06T02:17:13;94836.84;;;15.47;38.41
77871;BME280;67067;46.850;7.578;2023-08-06T02:18:15;94840.31;;;15.48;38.75
77871;BME280;67067;46.850;7.578;2023-08-06T02:19:19;94851.41;;;15.55;38.32
77871;BME280;67067;46.850;7.578;2023-08-06T02:20:23;94838.94;;;15.50;38.42
77871;BME280;67067;46.850;7.578;2023-08-06T02:21:25;94844.28;;;15.50;38.39
77871;BME280;67067;46.850;7.578;2023-08-06T02:22:28;94845.06;;;15.51;38.32
77871;BME280;67067;46.850;7.578;2023-08-06T02:23:29;94840.31;;;15.48;38.68
77871;BME280;67067;46.850;7.578;2023-08-06T02:24:31;94851.78;;;15.48;38.71
77871;BME280;67067;46.850;7.578;2023-08-06T02:25:33;94846.44;;;15.48;38.37
77871;BME280;67067;46.850;7.578;2023-08-06T02:26:34;94858.91;;;15.53;38.34
77871;BME280;67067;46.850;7.578;2023-08-06T02:27:37;94867.56;;;15.44;38.29
77871;BME280;67067;46.850;7.578;2023-08-06T02:28:39;94865.81;;;15.54;37.95
77871;BME280;67067;46.850;7.578;2023-08-06T02:29:41;94859.06;;;15.42;38.00
77871;BME280;67067;46.850;7.578;2023-08-06T02:30:49;94862.81;;;15.41;38.16
77871;BME280;67067;46.850;7.578;2023-08-06T02:31:51;94867.72;;;15.34;38.10
77871;BME280;67067;46.850;7.578;2023-08-06T02:32:53;94863.09;;;15.40;37.99
77871;BME280;67067;46.850;7.578;2023-08-06T02:33:55;94847.59;;;15.42;37.91
77871;BME280;67067;46.850;7.578;2023-08-06T02:34:56;94849.44;;;15.27;38.37
77871;BME280;67067;46.850;7.578;2023-08-06T02:35:59;94852.88;;;15.28;38.28
77871;BME280;67067;46.850;7.578;2023-08-06T02:37:00;94853.78;;;15.23;38.34
77871;BME280;67067;46.850;7.578;2023-08-06T02:38:02;94847.97;;;15.35;38.50
77871;BME280;67067;46.850;7.578;2023-08-06T02:39:04;94846.97;;;15.31;38.46
77871;BME280;67067;46.850;7.578;2023-08-06T02:40:05;94846.34;;;15.20;38.02
77871;BME280;67067;46.850;7.578;2023-08-06T02:41:07;94840.28;;;14.95;38.80
77871;BME280;67067;46.850;7.578;2023-08-06T02:42:09;94844.44;;;15.01;38.74
77871;BME280;67067;46.850;7.578;2023-08-06T02:43:11;94844.69;;;15.05;38.89
77871;BME280;67067;46.850;7.578;2023-08-06T02:44:14;94847.06;;;15.07;38.93
77871;BME280;67067;46.850;7.578;2023-08-06T02:45:17;94840.66;;;15.08;38.92
77871;BME280;67067;46.850;7.578;2023-08-06T02:46:20;94841.75;;;15.07;38.81
77871;BME280;67067;46.850;7.578;2023-08-06T02:47:22;94827.91;;;15.05;38.66
77871;BME280;67067;46.850;7.578;2023-08-06T02:48:24;94822.44;;;14.96;38.55
77871;BME280;67067;46.850;7.578;2023-08-06T02:49:25;94816.03;;;14.97;38.56
77871;BME280;67067;46.850;7.578;2023-08-06T02:50:27;94822.34;;;15.01;38.56
77871;BME280;67067;46.850;7.578;2023-08-06T02:51:29;94814.06;;;15.02;38.58
77871;BME280;67067;46.850;7.578;2023-08-06T02:52:34;94817.59;;;14.98;38.81
77871;BME280;67067;46.850;7.578;2023-08-06T02:53:35;94825.09;;;14.96;38.69
77871;BME280;67067;46.850;7.578;2023-08-06T02:54:41;94823.72;;;14.98;38.61
77871;BME280;67067;46.850;7.578;2023-08-06T02:55:46;94828.25;;;14.98;38.57
77871;BME280;67067;46.850;7.578;2023-08-06T02:56:51;94836.47;;;15.01;38.45
77871;BME280;67067;46.850;7.578;2023-08-06T02:57:58;94840.28;;;14.95;38.81
77871;BME280;67067;46.850;7.578;2023-08-06T02:59:08;94844.44;;;15.01;38.68
77871;BME280;67067;46.850;7.578;2023-08-06T03:00:22;94840.28;;;14.95;38.72
77871;BME280;67067;46.850;7.578;2023-08-06T03:01:23;94844.84;;;14.95;38.83
77871;BME280;67067;46.850;7.578;2023-08-06T03:02:34;94845.34;;;14.97;38.54
77871;BME280;67067;46.850;7.578;2023-08-06T03:03:52;94852.25;;;14.98;38.47
77871;BME280;67067;46.850;7.578;2023-08-06T03:05:00;94841.09;;;14.96;38.59
77871;BME280;67067;46.850;7.578;2023-08-06T03:06:09;94839.34;;;15.05;38.63
77871;BME280;67067;46.850;7.578;2023-08-06T03:07:18;94850.94;;;14.95;38.50
77871;BME280;67067;46.850;7.578;2023-08-06T03:08:27;94840.66;;;14.88;38.71
77871;BME280;67067;46.850;7.578;2023-08-06T03:09:28;94840.28;;;14.95;38.94
77871;BME280;67067;46.850;7.578;2023-08-06T03:10:31;94836.25;;;14.98;38.78
77871;BME280;67067;46.850;7.578;2023-08-06T03:11:36;94843.44;;;14.97;39.07
77871;BME280;67067;46.850;7.578;2023-08-06T03:12:42;94842.59;;;15.02;38.97
77871;BME280;67067;46.850;7.578;2023-08-06T03:13:44;94840.69;;;15.02;39.15
77871;BME280;67067;46.850;7.578;2023-08-06T03:14:47;94836.75;;;15.00;39.02
77871;BME280;67067;46.850;7.578;2023-08-06T03:15:53;94837.75;;;15.04;39.11
77871;BME280;67067;46.850;7.578;2023-08-06T03:16:58;94832.50;;;14.99;39.42
77871;BME280;67067;46.850;7.578;2023-08-06T03:18:00;94841.44;;;15.08;39.25
77871;BME280;67067;46.850;7.578;2023-08-06T03:19:02;94837.75;;;15.04;39.30
77871;BME280;67067;46.850;7.578;2023-08-06T03:20:04;94828.69;;;15.05;39.29
77871;BME280;67067;46.850;7.578;2023-08-06T03:21:07;94831.63;;;15.03;39.42
77871;BME280;67067;46.850;7.578;2023-08-06T03:22:09;94824.16;;;15.06;39.33
77871;BME280;67067;46.850;7.578;2023-08-06T03:23:12;94829.34;;;14.97;39.47
77871;BME280;67067;46.850;7.578;2023-08-06T03:24:13;94829.28;;;15.02;39.32
77871;BME280;67067;46.850;7.578;2023-08-06T03:25:16;94827.25;;;14.94;39.84
77871;BME280;67067;46.850;7.578;2023-08-06T03:26:22;94830.34;;;15.01;39.67
77871;BME280;67067;46.850;7.578;2023-08-06T03:27:24;94835.38;;;15.02;39.81
77871;BME280;67067;46.850;7.578;2023-08-06T03:28:27;94822.34;;;15.01;39.55
77871;BME280;67067;46.850;7.578;2023-08-06T03:29:29;94827.09;;;15.04;39.51
77871;BME280;67067;46.850;7.578;2023-08-06T03:30:33;94829.28;;;15.02;39.60
77871;BME280;67067;46.850;7.578;2023-08-06T03:31:35;94829.84;;;14.99;39.62
77871;BME280;67067;46.850;7.578;2023-08-06T03:32:37;94834.38;;;14.98;39.71
77871;BME280;67067;46.850;7.578;2023-08-06T03:33:39;94826.09;;;15.00;39.50
77871;BME280;67067;46.850;7.578;2023-08-06T03:34:46;94827.38;;;15.02;39.43
77871;BME280;67067;46.850;7.578;2023-08-06T03:35:50;94830.34;;;15.01;39.40
77871;BME280;67067;46.850;7.578;2023-08-06T03:36:52;94833.00;;;15.01;39.49
77871;BME280;67067;46.850;7.578;2023-08-06T03:37:54;94827.38;;;15.02;39.55
77871;BME280;67067;46.850;7.578;2023-08-06T03:38:56;94828.47;;;15.01;39.39
77871;BME280;67067;46.850;7.578;2023-08-06T03:39:58;94828.47;;;15.01;39.35
77871;BME280;67067;46.850;7.578;2023-08-06T03:40:59;94828.75;;;15.00;39.18
77871;BME280;67067;46.850;7.578;2023-08-06T03:42:01;94825.03;;;15.01;39.05
77871;BME280;67067;46.850;7.578;2023-08-06T03:43:04;94833.88;;;14.96;38.91
77871;BME280;67067;46.850;7.578;2023-08-06T03:44:06;94832.78;;;14.97;38.80
77871;BME280;67067;46.850;7.578;2023-08-06T03:45:08;94829.84;;;14.99;39.08
77871;BME280;67067;46.850;7.578;2023-08-06T03:46:11;94826.25;;;14.89;38.85
77871;BME280;67067;46.850;7.578;2023-08-06T03:47:13;94831.34;;;14.86;38.72
77871;BME280;67067;46.850;7.578;2023-08-06T03:48:17;94839.72;;;14.79;38.97
77871;BME280;67067;46.850;7.578;2023-08-06T03:49:18;94831.22;;;14.77;39.01
77871;BME280;67067;46.850;7.578;2023-08-06T03:50:20;94834.50;;;14.69;39.30
77871;BME280;67067;46.850;7.578;2023-08-06T03:51:22;94834.50;;;14.69;39.30
77871;BME280;67067;46.850;7.578;2023-08-06T03:52:24;94839.84;;;14.69;39.38
77871;BME280;67067;46.850;7.578;2023-08-06T03:53:25;94829.34;;;14.58;39.84
77871;BME280;67067;46.850;7.578;2023-08-06T03:54:27;94836.31;;;14.54;39.88
77871;BME280;67067;46.850;7.578;2023-08-06T03:55:32;94841.06;;;14.57;39.56
77871;BME280;67067;46.850;7.578;2023-08-06T03:56:38;94837.69;;;14.52;39.69
77871;BME280;67067;46.850;7.578;2023-08-06T03:57:41;94842.78;;;14.48;40.00
77871;BME280;67067;46.850;7.578;2023-08-06T03:58:43;94838.66;;;14.37;40.09
77871;BME280;67067;46.850;7.578;2023-08-06T03:59:45;94842.66;;;14.39;40.12
77871;BME280;67067;46.850;7.578;2023-08-06T04:00:58;94831.69;;;14.41;40.05
77871;BME280;67067;46.850;7.578;2023-08-06T04:02:02;94837.59;;;14.38;40.10
77871;BME280;67067;46.850;7.578;2023-08-06T04:03:03;94836.00;;;14.37;40.13
77871;BME280;67067;46.850;7.578;2023-08-06T04:04:05;94833.91;;;14.34;40.31
77871;BME280;67067;46.850;7.578;2023-08-06T04:05:07;94834.41;;;14.36;40.73
77871;BME280;67067;46.850;7.578;2023-08-06T04:06:09;94836.50;;;14.39;40.67
77871;BME280;67067;46.850;7.578;2023-08-06T04:07:13;94843.00;;;14.27;41.25
77871;BME280;67067;46.850;7.578;2023-08-06T04:08:14;94848.25;;;14.38;40.80
77871;BME280;67067;46.850;7.578;2023-08-06T04:09:16;94851.72;;;14.38;40.74
77871;BME280;67067;46.850;7.578;2023-08-06T04:10:20;94854.91;;;14.35;40.96
77871;BME280;67067;46.850;7.578;2023-08-06T04:11:21;94855.72;;;14.36;41.05
77871;BME280;67067;46.850;7.578;2023-08-06T04:12:24;94851.41;;;14.40;41.20
77871;BME280;67067;46.850;7.578;2023-08-06T04:13:25;94854.78;;;14.21;42.54
77871;BME280;67067;46.850;7.578;2023-08-06T04:14:27;94846.22;;;14.29;41.74
77871;BME280;67067;46.850;7.578;2023-08-06T04:15:33;94852.06;;;14.26;41.97
77871;BME280;67067;46.850;7.578;2023-08-06T04:16:34;94851.53;;;14.29;41.87
77871;BME280;67067;46.850;7.578;2023-08-06T04:17:36;94855.50;;;14.27;42.05
77871;BME280;67067;46.850;7.578;2023-08-06T04:18:38;94851.53;;;14.29;41.71
77871;BME280;67067;46.850;7.578;2023-08-06T04:19:39;94866.44;;;14.30;41.55
77871;BME280;67067;46.850;7.578;2023-08-06T04:20:47;94851.75;;;14.33;41.32
77871;BME280;67067;46.850;7.578;2023-08-06T04:21:50;94866.38;;;14.36;41.25
77871;BME280;67067;46.850;7.578;2023-08-06T04:22:54;94856.50;;;14.36;40.83
77871;BME280;67067;46.850;7.578;2023-08-06T04:23:56;94864.53;;;14.31;40.84
77871;BME280;67067;46.850;7.578;2023-08-06T04:24:58;94869.75;;;14.17;41.21
77871;BME280;67067;46.850;7.578;2023-08-06T04:25:59;94874.06;;;14.13;41.07
77871;BME280;67067;46.850;7.578;2023-08-06T04:27:05;94871.91;;;14.15;41.27
77871;BME280;67067;46.850;7.578;2023-08-06T04:28:09;94863.03;;;14.20;41.32
77871;BME280;67067;46.850;7.578;2023-08-06T04:29:11;94869.84;;;14.07;41.77
77871;BME280;67067;46.850;7.578;2023-08-06T04:30:12;94871.34;;;14.18;41.70
77871;BME280;67067;46.850;7.578;2023-08-06T04:31:15;94866.78;;;14.19;41.43
77871;BME280;67067;46.850;7.578;2023-08-06T04:32:18;94867.03;;;14.22;41.46
77871;BME280;67067;46.850;7.578;2023-08-06T04:33:24;94867.16;;;14.12;41.79
77871;BME280;67067;46.850;7.578;2023-08-06T04:34:26;94870.06;;;14.10;41.76
77871;BME280;67067;46.850;7.578;2023-08-06T04:35:27;94862.31;;;14.14;41.79
77871;BME280;67067;46.850;7.578;2023-08-06T04:36:30;94877.66;;;14.22;41.55
77871;BME280;67067;46.850;7.578;2023-08-06T04:37:33;94871.03;;;14.20;41.62
77871;BME280;67067;46.850;7.578;2023-08-06T04:38:35;94865.44;;;14.21;41.71
77871;BME280;67067;46.850;7.578;2023-08-06T04:39:40;94883.47;;;14.29;41.47
77871;BME280;67067;46.850;7.578;2023-08-06T04:40:41;94875.72;;;14.28;41.63
77871;BME280;67067;46.850;7.578;2023-08-06T04:41:43;94870.69;;;14.26;41.33
77871;BME280;67067;46.850;7.578;2023-08-06T04:42:47;94873.06;;;14.28;41.14
77871;BME280;67067;46.850;7.578;2023-08-06T04:43:49;94872.56;;;14.26;41.67
77871;BME280;67067;46.850;7.578;2023-08-06T04:44:56;94867.03;;;14.22;41.42
77871;BME280;67067;46.850;7.578;2023-08-06T04:45:58;94869.59;;;14.33;41.33
77871;BME280;67067;46.850;7.578;2023-08-06T04:47:00;94871.25;;;14.28;41.40
77871;BME280;67067;46.850;7.578;2023-08-06T04:48:04;94869.53;;;14.38;41.19
77871;BME280;67067;46.850;7.578;2023-08-06T04:49:05;94867.38;;;14.40;41.14
77871;BME280;67067;46.850;7.578;2023-08-06T04:50:10;94883.34;;;14.40;41.38
77871;BME280;67067;46.850;7.578;2023-08-06T04:51:12;94874.53;;;14.44;41.18
77871;BME280;67067;46.850;7.578;2023-08-06T04:52:14;94880.69;;;14.40;41.37
77871;BME280;67067;46.850;7.578;2023-08-06T04:53:19;94891.69;;;14.28;42.10
77871;BME280;67067;46.850;7.578;2023-08-06T04:54:20;94876.94;;;14.41;41.80
77871;BME280;67067;46.850;7.578;2023-08-06T04:55:22;94889.13;;;14.47;41.33
77871;BME280;67067;46.850;7.578;2023-08-06T04:56:24;94885.91;;;14.21;41.87
77871;BME280;67067;46.850;7.578;2023-08-06T04:57:25;94888.75;;;14.35;41.68
77871;BME280;67067;46.850;7.578;2023-08-06T04:58:27;94896.09;;;14.43;41.77
77871;BME280;67067;46.850;7.578;2023-08-06T04:59:29;94909.94;;;14.15;43.00
77871;BME280;67067;46.850;7.578;2023-08-06T05:00:30;94905.31;;;14.26;42.48
77871;BME280;67067;46.850;7.578;2023-08-06T05:01:32;94906.34;;;14.30;42.23
77871;BME280;67067;46.850;7.578;2023-08-06T05:02:34;94901.41;;;14.43;42.36
77871;BME280;67067;46.850;7.578;2023-08-06T05:03:36;94923.00;;;14.41;42.25
77871;BME280;67067;46.850;7.578;2023-08-06T05:04:38;94923.44;;;14.24;42.93
77871;BME280;67067;46.850;7.578;2023-08-06T05:05:40;94912.31;;;14.17;42.99
77871;BME280;67067;46.850;7.578;2023-08-06T05:06:42;94919.38;;;14.27;42.54
77871;BME280;67067;46.850;7.578;2023-08-06T05:07:45;94917.44;;;14.38;42.57
77871;BME280;67067;46.850;7.578;2023-08-06T05:08:46;94924.59;;;14.42;42.55
77871;BME280;67067;46.850;7.578;2023-08-06T05:09:52;94929.69;;;14.39;42.66
77871;BME280;67067;46.850;7.578;2023-08-06T05:10:58;94928.03;;;14.43;42.87
77871;BME280;67067;46.850;7.578;2023-08-06T05:12:00;94920.06;;;14.43;42.45
77871;BME280;67067;46.850;7.578;2023-08-06T05:13:02;94926.50;;;14.37;43.16
77871;BME280;67067;46.850;7.578;2023-08-06T05:14:04;94935.81;;;14.39;43.26
77871;BME280;67067;46.850;7.578;2023-08-06T05:15:05;94930.81;;;14.33;44.88
77871;BME280;67067;46.850;7.578;2023-08-06T05:16:09;94931.38;;;14.29;44.58
77871;BME280;67067;46.850;7.578;2023-08-06T05:17:11;94928.25;;;14.22;44.78
77871;BME280;67067;46.850;7.578;2023-08-06T05:18:13;94936.78;;;14.19;44.67
77871;BME280;67067;46.850;7.578;2023-08-06T05:19:17;94937.56;;;14.20;44.92
77871;BME280;67067;46.850;7.578;2023-08-06T05:20:19;94937.34;;;14.16;45.22
77871;BME280;67067;46.850;7.578;2023-08-06T05:21:21;94940.28;;;14.14;46.33
77871;BME280;67067;46.850;7.578;2023-08-06T05:22:24;94954.72;;;14.08;46.32
77871;BME280;67067;46.850;7.578;2023-08-06T05:23:26;94956.03;;;14.11;46.02
77871;BME280;67067;46.850;7.578;2023-08-06T05:24:28;94963.00;;;14.01;45.86
77871;BME280;67067;46.850;7.578;2023-08-06T05:25:31;94967.38;;;13.87;46.07
77871;BME280;67067;46.850;7.578;2023-08-06T05:26:35;94976.00;;;13.73;46.12
77871;BME280;67067;46.850;7.578;2023-08-06T05:27:37;94981.88;;;13.70;46.15
77871;BME280;67067;46.850;7.578;2023-08-06T05:28:39;94981.03;;;13.40;46.63
77871;BME280;67067;46.850;7.578;2023-08-06T05:29:42;94976.06;;;13.23;46.77
77871;BME280;67067;46.850;7.578;2023-08-06T05:30:47;94970.75;;;13.23;46.77
77871;BME280;67067;46.850;7.578;2023-08-06T05:31:51;94978.69;;;12.73;47.33
77871;BME280;67067;46.850;7.578;2023-08-06T05:32:53;94994.66;;;12.52;47.32
77871;BME280;67067;46.850;7.578;2023-08-06T05:33:55;95009.25;;;12.24;48.52
77871;BME280;67067;46.850;7.578;2023-08-06T05:34:56;95006.06;;;12.32;48.09
77871;BME280;67067;46.850;7.578;2023-08-06T05:35:58;95018.56;;;12.01;48.50
77871;BME280;67067;46.850;7.578;2023-08-06T05:37:00;95014.31;;;12.31;47.77
77871;BME280;67067;46.850;7.578;2023-08-06T05:38:01;95013.81;;;12.13;48.14
77871;BME280;67067;46.850;7.578;2023-08-06T05:39:03;95012.72;;;12.24;47.87
77871;BME280;67067;46.850;7.578;2023-08-06T05:40:05;95031.84;;;12.21;48.08
77871;BME280;67067;46.850;7.578;2023-08-06T05:41:07;95019.09;;;11.92;49.04
77871;BME280;67067;46.850;7.578;2023-08-06T05:42:08;95026.25;;;11.87;49.23